createdAt,value
2018-07-20T00:01:29.647Z,92.70
2018-07-20T00:04:00.528Z,93.30
2018-07-20T00:06:31.434Z,93.40
2018-07-20T00:09:02.661Z,93.30
2018-07-20T00:11:33.892Z,93.00
2018-07-20T00:14:04.601Z,93.00
2018-07-20T00:16:35.354Z,93.30
2018-07-20T00:19:07.698Z,93.30
2018-07-20T00:21:38.437Z,94.20
2018-07-20T00:24:09.405Z,93.90
2018-07-20T00:26:40.097Z,94.40
2018-07-20T00:29:11.632Z,94.50
2018-07-20T00:31:42.511Z,94.40
2018-07-20T00:34:13.411Z,94.70
2018-07-20T00:36:44.175Z,95.20
2018-07-20T00:41:45.141Z,96.40
2018-07-20T00:44:16.173Z,97.90
2018-07-20T00:46:46.921Z,97.80
2018-07-20T00:49:17.868Z,97.80
2018-07-20T00:51:48.513Z,97.40
2018-07-20T00:54:19.262Z,98.70
2018-07-20T00:56:50.285Z,98.90
2018-07-20T00:59:21.214Z,99.00
2018-07-20T01:01:52.101Z,98.70
2018-07-20T01:04:22.690Z,98.90
2018-07-20T01:06:53.575Z,99.20
2018-07-20T01:09:24.476Z,99.50
2018-07-20T01:11:55.702Z,99.90
2018-07-20T01:14:26.428Z,99.80
2018-07-20T01:16:57.170Z,99.90
2018-07-20T01:19:27.952Z,99.90
2018-07-20T01:21:58.649Z,99.90
2018-07-20T01:24:29.624Z,99.90
2018-07-20T01:27:00.809Z,99.80
2018-07-20T01:29:31.675Z,99.90
2018-07-20T01:32:02.199Z,99.90
2018-07-20T01:34:33.327Z,99.90
2018-07-20T01:37:04.216Z,99.90
2018-07-20T01:39:34.915Z,99.90
2018-07-20T01:42:05.859Z,99.90
2018-07-20T01:44:36.996Z,99.90
2018-07-20T01:47:07.669Z,99.90
2018-07-20T01:49:38.353Z,99.90
2018-07-20T01:52:08.942Z,99.90
2018-07-20T01:54:40.276Z,99.90
2018-07-20T01:57:11.659Z,99.90
2018-07-20T01:59:42.473Z,99.90
2018-07-20T02:02:13.675Z,99.90
2018-07-20T02:04:44.341Z,99.90
2018-07-20T02:07:14.845Z,99.90
2018-07-20T02:09:45.542Z,99.90
2018-07-20T02:12:16.883Z,99.90
2018-07-20T02:14:47.689Z,99.90
2018-07-20T02:17:18.464Z,99.90
2018-07-20T02:22:19.839Z,99.90
2018-07-20T02:24:50.752Z,99.90
2018-07-20T02:27:21.965Z,99.90
2018-07-20T02:29:52.823Z,99.90
2018-07-20T02:32:23.574Z,99.90
2018-07-20T02:34:54.039Z,99.90
2018-07-20T02:37:24.775Z,99.90
2018-07-20T02:39:55.622Z,99.90
2018-07-20T02:42:26.717Z,99.90
2018-07-20T02:44:57.228Z,99.90
2018-07-20T02:47:27.696Z,99.90
2018-07-20T02:49:58.707Z,99.90
2018-07-20T02:52:29.218Z,99.90
2018-07-20T02:57:29.465Z,99.90
2018-07-20T03:00:00.309Z,99.90
2018-07-20T03:02:30.734Z,99.90
2018-07-20T03:05:01.217Z,99.90
2018-07-20T03:07:31.880Z,99.90
2018-07-20T03:10:02.856Z,99.90
2018-07-20T03:12:33.110Z,99.90
2018-07-20T03:15:03.766Z,99.90
2018-07-20T03:17:34.725Z,99.90
2018-07-20T03:20:05.205Z,99.90
2018-07-20T03:22:35.769Z,99.90
2018-07-20T03:25:06.350Z,99.90
2018-07-20T03:27:37.036Z,99.90
2018-07-20T03:30:07.459Z,99.90
2018-07-20T03:32:37.824Z,99.90
2018-07-20T03:35:08.249Z,99.90
2018-07-20T03:37:38.682Z,99.90
2018-07-20T03:40:09.038Z,99.90
2018-07-20T03:42:39.666Z,99.90
2018-07-20T03:45:10.002Z,99.90
2018-07-20T03:47:40.590Z,99.90
2018-07-20T03:50:11.362Z,99.90
2018-07-20T03:52:41.890Z,99.90
2018-07-20T03:55:12.275Z,99.90
2018-07-20T03:57:42.730Z,99.90
2018-07-20T04:00:13.973Z,99.90
2018-07-20T04:02:44.347Z,99.90
2018-07-20T04:05:14.550Z,99.90
2018-07-20T04:07:45.052Z,99.90
2018-07-20T04:10:16.077Z,99.90
2018-07-20T04:12:48.293Z,99.90
2018-07-20T04:15:18.816Z,99.90
2018-07-20T04:17:49.654Z,99.90
2018-07-20T04:20:20.156Z,99.90
2018-07-20T04:22:50.661Z,99.90
2018-07-20T04:25:21.525Z,99.90
2018-07-20T04:27:53.381Z,99.90
2018-07-20T04:30:23.780Z,99.90
2018-07-20T04:32:54.555Z,99.90
2018-07-20T04:35:29.877Z,99.90
2018-07-20T04:38:00.258Z,99.90
2018-07-20T04:40:30.653Z,99.90
2018-07-20T04:43:01.141Z,99.90
2018-07-20T04:45:32.046Z,99.90
2018-07-20T04:48:02.617Z,99.90
2018-07-20T04:50:33.085Z,99.90
2018-07-20T04:53:03.506Z,99.90
2018-07-20T04:55:34.578Z,99.90
2018-07-20T04:58:04.902Z,99.90
2018-07-20T05:00:35.774Z,99.90
2018-07-20T05:03:11.577Z,99.90
2018-07-20T05:05:42.123Z,99.90
2018-07-20T05:08:12.655Z,99.90
2018-07-20T05:10:43.473Z,99.90
2018-07-20T05:13:14.125Z,99.90
2018-07-20T05:15:44.864Z,99.90
2018-07-20T05:18:15.342Z,99.90
2018-07-20T05:20:46.315Z,99.90
2018-07-20T05:23:16.909Z,99.90
2018-07-20T05:25:47.548Z,99.90
2018-07-20T05:28:18.554Z,99.90
2018-07-20T05:30:48.934Z,99.90
2018-07-20T05:33:19.724Z,99.90
2018-07-20T05:35:51.729Z,99.90
2018-07-20T05:38:22.166Z,99.90
2018-07-20T05:40:52.543Z,99.90
2018-07-20T05:43:23.076Z,99.90
2018-07-20T05:45:54.013Z,99.90
2018-07-20T05:48:24.716Z,99.90
2018-07-20T05:50:55.093Z,99.90
2018-07-20T05:53:25.802Z,99.90
2018-07-20T05:55:56.725Z,99.90
2018-07-20T05:58:27.284Z,99.90
2018-07-20T06:00:57.653Z,99.90
2018-07-20T06:03:27.999Z,99.90
2018-07-20T06:05:58.498Z,99.90
2018-07-20T06:08:28.979Z,99.90
2018-07-20T06:10:59.508Z,99.90
2018-07-20T06:13:29.925Z,99.90
2018-07-20T06:16:00.923Z,99.90
2018-07-20T06:18:31.401Z,99.90
2018-07-20T06:21:01.899Z,99.90
2018-07-20T06:23:32.635Z,99.90
2018-07-20T06:26:03.827Z,99.90
2018-07-20T06:28:34.274Z,99.90
2018-07-20T06:31:04.714Z,99.90
2018-07-20T06:33:35.205Z,99.90
2018-07-20T06:36:05.676Z,99.90
2018-07-20T06:38:36.150Z,99.90
2018-07-20T06:41:07.033Z,99.90
2018-07-20T06:43:37.428Z,99.90
2018-07-20T06:46:08.379Z,99.90
2018-07-20T06:48:39.132Z,99.90
2018-07-20T06:51:09.858Z,99.90
2018-07-20T06:53:40.353Z,99.90
2018-07-20T06:56:11.157Z,99.90
2018-07-20T06:58:41.723Z,99.90
2018-07-20T07:01:12.319Z,99.90
2018-07-20T07:03:42.689Z,99.90
2018-07-20T07:06:13.158Z,99.90
2018-07-20T07:08:43.752Z,99.90
2018-07-20T07:11:14.645Z,99.90
2018-07-20T07:13:45.196Z,99.90
2018-07-20T07:16:15.716Z,99.90
2018-07-20T07:18:46.309Z,99.90
2018-07-20T07:21:16.853Z,99.90
2018-07-20T07:23:47.414Z,99.90
2018-07-20T07:26:17.821Z,99.90
2018-07-20T07:28:48.449Z,99.90
2018-07-20T07:31:19.043Z,99.90
2018-07-20T07:33:49.601Z,99.90
2018-07-20T07:36:20.555Z,99.90
2018-07-20T07:38:51.212Z,99.90
2018-07-20T07:41:21.786Z,99.90
2018-07-20T07:43:52.945Z,99.40
2018-07-20T07:46:23.959Z,99.60
2018-07-20T07:48:54.597Z,98.20
2018-07-20T07:51:25.162Z,97.80
2018-07-20T07:53:56.181Z,97.40
2018-07-20T07:56:28.943Z,97.20
2018-07-20T07:58:59.435Z,97.70
2018-07-20T08:04:00.125Z,96.60
2018-07-20T08:06:30.557Z,96.10
2018-07-20T08:09:01.097Z,95.00
2018-07-20T08:11:31.574Z,95.60
2018-07-20T08:14:02.602Z,95.10
2018-07-20T08:16:33.463Z,94.80
2018-07-20T08:19:04.397Z,94.00
2018-07-20T08:21:40.343Z,92.80
2018-07-20T08:24:10.983Z,91.30
2018-07-20T08:26:41.488Z,92.60
2018-07-20T08:29:12.337Z,92.40
2018-07-20T08:31:43.009Z,91.60
2018-07-20T08:34:13.580Z,90.40
2018-07-20T08:36:43.966Z,89.60
2018-07-20T08:39:14.492Z,86.80
2018-07-20T08:41:44.813Z,85.30
2018-07-20T08:44:16.277Z,86.00
2018-07-20T08:46:46.937Z,86.60
2018-07-20T08:49:17.534Z,84.20
2018-07-20T08:51:48.260Z,80.20
2018-07-20T08:54:18.686Z,80.40
2018-07-20T08:56:49.157Z,79.80
2018-07-20T08:59:19.425Z,81.50
2018-07-20T09:01:50.488Z,81.00
2018-07-20T09:04:20.901Z,76.50
2018-07-20T09:06:51.894Z,77.90
2018-07-20T09:09:22.558Z,77.70
2018-07-20T09:11:54.733Z,79.60
2018-07-20T09:14:25.190Z,76.50
2018-07-20T09:19:25.800Z,76.10
2018-07-20T09:21:56.230Z,76.70
2018-07-20T09:24:26.670Z,78.00
2018-07-20T09:26:57.138Z,74.70
2018-07-20T09:29:28.504Z,73.90
2018-07-20T09:31:58.840Z,71.00
2018-07-20T09:34:29.438Z,74.40
2018-07-20T09:39:30.142Z,72.70
2018-07-20T09:42:00.665Z,71.80
2018-07-20T09:44:31.119Z,69.10
2018-07-20T09:47:01.870Z,67.60
2018-07-20T09:49:32.609Z,67.80
2018-07-20T09:52:03.261Z,67.20
2018-07-20T09:54:34.113Z,65.70
2018-07-20T09:57:04.897Z,65.00
2018-07-20T09:59:35.491Z,66.70
2018-07-20T10:02:05.868Z,66.00
2018-07-20T10:04:36.358Z,65.80
2018-07-20T10:07:07.229Z,66.30
2018-07-20T10:09:37.934Z,65.50
2018-07-20T10:12:08.932Z,64.80
2018-07-20T10:14:39.308Z,64.00
2018-07-20T10:17:10.214Z,62.50
2018-07-20T10:19:40.785Z,64.10
2018-07-20T10:22:11.409Z,64.60
2018-07-20T10:24:41.828Z,62.10
2018-07-20T10:27:12.230Z,66.30
2018-07-20T10:29:43.017Z,66.40
2018-07-20T10:32:13.576Z,66.10
2018-07-20T10:34:44.053Z,65.30
2018-07-20T10:37:15.353Z,62.30
2018-07-20T10:39:46.026Z,60.80
2018-07-20T10:42:16.333Z,61.30
2018-07-20T10:44:48.981Z,60.60
2018-07-20T10:47:19.878Z,61.20
2018-07-20T10:49:51.291Z,60.30
2018-07-20T10:54:52.154Z,58.00
2018-07-20T10:57:23.090Z,60.20
2018-07-20T10:59:53.633Z,60.90
2018-07-20T11:02:24.106Z,60.20
2018-07-20T11:04:54.699Z,58.50
2018-07-20T11:07:25.485Z,59.30
2018-07-20T11:09:55.940Z,57.70
2018-07-20T11:12:26.492Z,57.60
2018-07-20T11:14:57.544Z,57.60
2018-07-20T11:17:28.165Z,57.70
2018-07-20T11:19:58.575Z,57.60
2018-07-20T11:22:29.900Z,58.20
2018-07-20T11:25:00.469Z,58.10
2018-07-20T11:27:31.164Z,59.00
2018-07-20T11:30:01.622Z,57.90
2018-07-20T11:35:02.598Z,57.90
2018-07-20T11:37:33.117Z,57.50
2018-07-20T11:40:03.947Z,58.50
2018-07-20T11:42:34.312Z,56.90
2018-07-20T11:45:04.977Z,58.30
2018-07-20T11:47:35.405Z,58.40
2018-07-20T11:50:06.341Z,57.50
2018-07-20T11:55:07.975Z,58.70
2018-07-20T11:57:38.214Z,56.70
2018-07-20T12:00:09.059Z,56.00
2018-07-20T12:02:39.736Z,57.10
2018-07-20T12:05:10.147Z,55.70
2018-07-20T12:07:40.491Z,58.10
2018-07-20T12:10:10.905Z,58.80
2018-07-20T12:12:41.165Z,56.90
2018-07-20T12:15:11.913Z,56.00
2018-07-20T12:17:42.549Z,56.30
2018-07-20T12:20:12.849Z,56.50
2018-07-20T12:22:45.621Z,56.90
2018-07-20T12:25:16.343Z,54.00
2018-07-20T12:27:46.746Z,51.80
2018-07-20T12:30:17.513Z,52.30
2018-07-20T12:32:48.064Z,55.50
2018-07-20T12:35:18.521Z,53.30
2018-07-20T12:37:48.911Z,54.10
2018-07-20T12:40:19.154Z,54.30
2018-07-20T12:42:49.669Z,54.40
2018-07-20T12:45:20.890Z,55.40
2018-07-20T12:47:51.318Z,54.80
2018-07-20T12:52:51.880Z,54.20
2018-07-20T12:55:22.694Z,53.70
2018-07-20T12:57:53.201Z,54.10
2018-07-20T13:00:23.997Z,54.70
2018-07-20T13:02:54.586Z,54.60
2018-07-20T13:05:24.961Z,52.30
2018-07-20T13:10:31.005Z,53.80
2018-07-20T13:13:01.616Z,51.30
2018-07-20T13:15:32.210Z,51.50
2018-07-20T13:18:02.773Z,51.30
2018-07-20T13:20:33.428Z,51.10
2018-07-20T13:23:04.208Z,50.70
2018-07-20T13:25:35.170Z,50.70
2018-07-20T13:28:05.845Z,51.00
2018-07-20T13:30:37.578Z,49.80
2018-07-20T13:33:08.074Z,48.60
2018-07-20T13:35:38.442Z,50.60
2018-07-20T13:38:09.380Z,51.00
2018-07-20T13:40:41.577Z,49.80
2018-07-20T13:43:12.219Z,50.00
2018-07-20T13:45:43.142Z,50.50
2018-07-20T13:48:14.421Z,51.00
2018-07-20T13:50:44.974Z,50.40
2018-07-20T13:53:15.360Z,51.80
2018-07-20T13:55:45.828Z,50.90
2018-07-20T13:58:16.677Z,50.00
2018-07-20T14:00:47.252Z,49.50
2018-07-20T14:03:17.687Z,50.40
2018-07-20T14:05:48.283Z,50.90
2018-07-20T14:10:49.428Z,51.40
2018-07-20T14:13:19.847Z,51.80
2018-07-20T14:15:50.584Z,50.70
2018-07-20T14:18:21.007Z,51.30
2018-07-20T14:20:51.777Z,50.80
2018-07-20T14:23:22.812Z,50.30
2018-07-20T14:25:53.497Z,51.10
2018-07-20T14:28:24.306Z,50.30
2018-07-20T14:33:24.761Z,50.80
2018-07-20T14:35:55.570Z,50.10
2018-07-20T14:38:26.067Z,47.20
2018-07-20T14:40:56.423Z,48.00
2018-07-20T14:43:27.217Z,48.30
2018-07-20T14:45:57.845Z,48.60
2018-07-20T14:48:28.535Z,48.60
2018-07-20T14:50:59.529Z,49.30
2018-07-20T14:53:29.965Z,50.60
2018-07-20T14:56:00.460Z,50.90
2018-07-20T14:58:30.861Z,51.20
2018-07-20T15:03:31.556Z,50.70
2018-07-20T15:06:02.085Z,49.70
2018-07-20T15:08:32.355Z,50.00
2018-07-20T15:11:02.710Z,49.80
2018-07-20T15:13:33.009Z,49.30
2018-07-20T15:16:03.956Z,50.30
2018-07-20T15:18:34.257Z,50.60
2018-07-20T15:21:04.557Z,51.60
2018-07-20T15:23:35.281Z,51.00
2018-07-20T15:26:05.925Z,51.70
2018-07-20T15:28:36.526Z,51.50
2018-07-20T15:31:07.863Z,50.40
2018-07-20T15:33:38.163Z,49.70
2018-07-20T15:36:09.105Z,48.90
2018-07-20T15:38:39.613Z,48.30
2018-07-20T15:41:10.272Z,49.30
2018-07-20T15:43:41.914Z,49.50
2018-07-20T15:46:13.054Z,50.00
2018-07-20T15:48:44.086Z,48.10
2018-07-20T15:51:15.038Z,48.70
2018-07-20T15:53:45.573Z,49.60
2018-07-20T15:56:15.938Z,49.80
2018-07-20T15:58:46.640Z,50.40
2018-07-20T16:01:18.565Z,48.30
2018-07-20T16:03:49.170Z,49.10
2018-07-20T16:06:19.655Z,49.90
2018-07-20T16:08:50.218Z,48.90
2018-07-20T16:11:20.871Z,49.40
2018-07-20T16:13:52.009Z,48.90
2018-07-20T16:16:22.521Z,49.10
2018-07-20T16:18:53.065Z,49.00
2018-07-20T16:21:23.937Z,50.10
2018-07-20T16:23:54.416Z,51.40
2018-07-20T16:28:55.245Z,50.40
2018-07-20T16:31:25.605Z,50.80
2018-07-20T16:33:56.542Z,50.40
2018-07-20T16:36:27.117Z,50.30
2018-07-20T16:38:57.590Z,50.40
2018-07-20T16:41:28.001Z,49.40
2018-07-20T16:43:58.854Z,49.90
2018-07-20T16:46:29.628Z,51.60
2018-07-20T16:49:00.528Z,50.90
2018-07-20T16:51:31.328Z,51.60
2018-07-20T16:54:02.038Z,51.30
2018-07-20T16:56:32.438Z,51.60
2018-07-20T16:59:02.911Z,52.20
2018-07-20T17:01:33.696Z,52.30
2018-07-20T17:04:04.454Z,51.90
2018-07-20T17:06:35.089Z,52.10
2018-07-20T17:09:08.119Z,52.20
2018-07-20T17:11:39.028Z,52.80
2018-07-20T17:14:09.534Z,52.40
2018-07-20T17:16:39.793Z,53.10
2018-07-20T17:19:10.564Z,52.30
2018-07-20T17:21:41.584Z,52.20
2018-07-20T17:24:12.161Z,52.70
2018-07-20T17:26:42.701Z,52.20
2018-07-20T17:29:13.357Z,53.20
2018-07-20T17:31:46.414Z,52.50
2018-07-20T17:34:16.866Z,52.80
2018-07-20T17:36:47.634Z,53.40
2018-07-20T17:39:18.206Z,53.20
2018-07-20T17:41:49.863Z,53.50
2018-07-20T17:46:50.565Z,53.60
2018-07-20T17:49:21.539Z,53.70
2018-07-20T17:51:52.108Z,53.80
2018-07-20T17:54:22.673Z,53.70
2018-07-20T17:56:53.001Z,54.00
2018-07-20T17:59:23.935Z,54.10
2018-07-20T18:01:54.459Z,54.10
2018-07-20T18:04:25.117Z,55.10
2018-07-20T18:06:55.589Z,54.70
2018-07-20T18:09:26.030Z,54.90
2018-07-20T18:11:56.349Z,55.40
2018-07-20T18:14:28.301Z,54.90
2018-07-20T18:16:58.816Z,55.20
2018-07-20T18:19:29.280Z,55.30
2018-07-20T18:22:00.052Z,55.50
2018-07-20T18:27:01.054Z,55.90
2018-07-20T18:29:32.009Z,55.90
2018-07-20T18:32:02.814Z,56.30
2018-07-20T18:34:33.695Z,56.90
2018-07-20T18:37:04.288Z,56.60
2018-07-20T18:39:34.669Z,57.30
2018-07-20T18:42:05.331Z,58.40
2018-07-20T18:44:35.517Z,58.50
2018-07-20T18:47:06.040Z,59.10
2018-07-20T18:49:37.161Z,59.70
2018-07-20T18:52:07.566Z,59.80
2018-07-20T18:54:37.991Z,60.40
2018-07-20T18:57:12.355Z,60.50
2018-07-20T18:59:43.080Z,61.10
2018-07-20T19:02:13.562Z,61.50
2018-07-20T19:04:43.965Z,61.60
2018-07-20T19:07:15.859Z,62.20
2018-07-20T19:09:46.253Z,62.50
2018-07-20T19:12:16.643Z,63.10
2018-07-20T19:14:47.445Z,63.60
2018-07-20T19:17:18.137Z,63.90
2018-07-20T19:19:48.565Z,64.50
2018-07-20T19:22:20.593Z,64.70
2018-07-20T19:24:51.075Z,65.20
2018-07-20T19:27:21.698Z,64.90
2018-07-20T19:29:52.599Z,65.30
2018-07-20T19:32:23.179Z,65.30
2018-07-20T19:34:53.719Z,65.40
2018-07-20T19:37:25.329Z,65.90
2018-07-20T19:40:06.023Z,65.90
2018-07-20T19:42:49.543Z,65.80
2018-07-20T19:45:20.749Z,66.40
2018-07-20T19:47:51.368Z,66.50
2018-07-20T19:50:22.305Z,66.70
2018-07-20T19:55:22.862Z,68.00
2018-07-20T20:00:25.581Z,68.20
2018-07-20T20:02:56.650Z,68.30
2018-07-20T20:05:27.844Z,69.30
2018-07-20T20:07:58.580Z,70.10
2018-07-20T20:10:30.952Z,71.40
2018-07-20T20:13:02.513Z,72.00
2018-07-20T20:18:03.940Z,72.30
2018-07-20T20:20:34.561Z,73.10
2018-07-20T20:23:05.616Z,72.30
2018-07-20T20:25:36.741Z,72.70
2018-07-20T20:28:07.658Z,73.10
2018-07-20T20:30:38.541Z,73.00
2018-07-20T20:33:08.988Z,72.90
2018-07-20T20:35:39.689Z,72.90
2018-07-20T20:38:10.493Z,72.60
2018-07-20T20:40:41.488Z,72.80
2018-07-20T20:43:12.329Z,72.80
2018-07-20T20:45:43.456Z,73.20
2018-07-20T20:48:13.996Z,73.00
2018-07-20T20:50:44.586Z,73.50
2018-07-20T20:53:15.220Z,73.50
2018-07-20T20:55:46.130Z,73.50
2018-07-20T20:58:16.923Z,74.00
2018-07-20T21:00:47.883Z,73.90
2018-07-20T21:03:18.325Z,73.90
2018-07-20T21:05:48.883Z,74.20
2018-07-20T21:08:19.528Z,74.50
2018-07-20T21:10:49.938Z,74.70
2018-07-20T21:13:20.369Z,74.70
2018-07-20T21:15:51.372Z,74.80
2018-07-20T21:18:21.740Z,75.00
2018-07-20T21:20:52.225Z,75.50
2018-07-20T21:23:22.524Z,75.90
2018-07-20T21:25:52.954Z,76.20
2018-07-20T21:28:23.222Z,76.20
2018-07-20T21:30:53.758Z,76.70
2018-07-20T21:33:24.601Z,76.60
2018-07-20T21:35:55.142Z,77.70
2018-07-20T21:40:55.629Z,77.10
2018-07-20T21:43:26.349Z,76.40
2018-07-20T21:45:56.618Z,76.50
2018-07-20T21:48:28.520Z,76.30
2018-07-20T21:50:58.802Z,76.70
2018-07-20T21:53:28.985Z,76.80
2018-07-20T21:55:59.677Z,76.80
2018-07-20T21:58:30.062Z,77.00
2018-07-20T22:01:00.868Z,77.20
2018-07-20T22:03:31.307Z,77.10
2018-07-20T22:06:02.346Z,77.70
2018-07-20T22:11:26.138Z,77.80
2018-07-20T22:13:57.053Z,77.90
2018-07-20T22:16:27.651Z,78.50
2018-07-20T22:18:58.358Z,78.50
2018-07-20T22:21:28.709Z,78.50
2018-07-20T22:23:59.216Z,78.50
2018-07-20T22:26:29.957Z,78.70
2018-07-20T22:29:00.634Z,79.20
2018-07-20T22:31:31.098Z,78.90
2018-07-20T22:34:02.125Z,79.00
2018-07-20T22:36:32.744Z,78.90
2018-07-20T22:39:04.445Z,79.30
2018-07-20T22:41:35.470Z,79.10
2018-07-20T22:44:05.814Z,79.50
2018-07-20T22:46:36.544Z,80.10
2018-07-20T22:49:07.075Z,80.10
2018-07-20T22:51:38.210Z,80.20
2018-07-20T22:54:08.811Z,80.30
2018-07-20T22:56:39.314Z,80.60
2018-07-20T22:59:09.900Z,79.70
2018-07-20T23:01:40.821Z,79.30
2018-07-20T23:04:11.285Z,78.80
2018-07-20T23:06:42.140Z,78.90
2018-07-20T23:09:12.700Z,78.70
2018-07-20T23:11:43.092Z,78.50
2018-07-20T23:14:13.635Z,78.50
2018-07-20T23:16:44.247Z,79.20
2018-07-20T23:19:15.019Z,79.00
2018-07-20T23:21:46.712Z,79.00
2018-07-20T23:24:17.172Z,78.80
2018-07-20T23:26:49.453Z,79.60
2018-07-20T23:29:19.821Z,79.10
2018-07-20T23:31:50.617Z,79.40
2018-07-20T23:34:20.753Z,78.90
2018-07-20T23:36:51.355Z,79.10
2018-07-20T23:39:21.701Z,79.00
2018-07-20T23:41:52.178Z,79.10
2018-07-20T23:44:22.808Z,78.60
2018-07-20T23:46:53.219Z,79.20
2018-07-20T23:49:23.965Z,79.60
2018-07-20T23:51:54.641Z,79.10
2018-07-20T23:54:24.971Z,79.30
2018-07-20T23:56:55.522Z,79.70
2018-07-20T23:59:25.931Z,79.80
